createdAt,value
2023-01-29T00:01:28.736Z,0.66
2023-01-29T00:03:56.559Z,0.59
2023-01-29T00:06:24.288Z,0.63
2023-01-29T00:08:52.074Z,0.59
2023-01-29T00:11:20.307Z,0.57
2023-01-29T00:13:48.249Z,0.52
2023-01-29T00:16:15.990Z,0.58
2023-01-29T00:18:45.488Z,0.58
2023-01-29T00:21:14.231Z,0.55
2023-01-29T00:23:42.544Z,0.56
2023-01-29T00:26:10.654Z,0.53
2023-01-29T00:28:38.667Z,0.61
2023-01-29T00:31:10.261Z,0.50
2023-01-29T00:33:38.136Z,0.64
2023-01-29T00:36:09.732Z,0.60
2023-01-29T00:38:38.481Z,0.64
2023-01-29T00:41:25.379Z,0.72
2023-01-29T00:44:10.638Z,0.67
2023-01-29T00:46:38.429Z,0.74
2023-01-29T00:49:06.862Z,0.79
2023-01-29T00:51:36.629Z,0.72
2023-01-29T00:54:06.855Z,0.65
2023-01-29T00:56:36.588Z,0.75
2023-01-29T00:59:04.725Z,0.69
2023-01-29T01:02:01.654Z,0.69
2023-01-29T01:04:29.459Z,0.73
2023-01-29T01:06:58.612Z,0.78
2023-01-29T01:09:44.219Z,0.71
2023-01-29T01:12:11.975Z,0.65
2023-01-29T01:14:43.028Z,0.67
2023-01-29T01:17:11.020Z,0.75
2023-01-29T01:19:38.824Z,0.77
2023-01-29T01:22:07.953Z,0.81
2023-01-29T01:24:35.760Z,0.72
2023-01-29T01:27:03.601Z,0.82
2023-01-29T01:29:31.453Z,0.83
2023-01-29T01:31:59.759Z,0.87
2023-01-29T01:34:28.034Z,0.82
2023-01-29T01:36:56.346Z,0.77
2023-01-29T01:39:26.061Z,0.70
2023-01-29T01:41:54.690Z,0.82
2023-01-29T01:44:54.908Z,0.69
2023-01-29T01:47:30.199Z,0.68
2023-01-29T01:50:02.939Z,0.51
2023-01-29T01:52:32.748Z,0.68
2023-01-29T01:55:02.238Z,0.71
2023-01-29T01:57:32.665Z,0.79
2023-01-29T02:00:11.089Z,0.76
2023-01-29T02:02:58.078Z,0.78
2023-01-29T02:05:44.467Z,0.83
2023-01-29T02:08:31.010Z,0.75
2023-01-29T02:11:01.494Z,0.75
2023-01-29T02:13:29.367Z,0.69
2023-01-29T02:15:57.096Z,0.73
2023-01-29T02:18:24.975Z,0.81
2023-01-29T02:21:11.885Z,0.76
2023-01-29T02:24:36.289Z,0.78
2023-01-29T02:27:10.054Z,0.75
2023-01-29T02:29:49.650Z,0.78
2023-01-29T02:32:24.310Z,0.85
2023-01-29T02:35:25.597Z,0.80
2023-01-29T02:38:00.346Z,0.70
2023-01-29T02:40:32.588Z,0.82
2023-01-29T02:43:08.892Z,0.88
2023-01-29T02:45:46.462Z,0.82
2023-01-29T02:48:18.886Z,0.86
2023-01-29T02:50:54.302Z,0.84
2023-01-29T02:53:28.615Z,0.75
2023-01-29T02:56:01.227Z,0.80
2023-01-29T02:58:32.324Z,0.77
2023-01-29T03:01:07.745Z,0.80
2023-01-29T03:03:39.543Z,0.87
2023-01-29T03:06:12.109Z,0.82
2023-01-29T03:08:51.817Z,0.78
2023-01-29T03:11:19.735Z,0.82
2023-01-29T03:13:51.815Z,0.86
2023-01-29T03:16:25.929Z,0.86
2023-01-29T03:19:01.303Z,0.81
2023-01-29T03:21:55.098Z,0.82
2023-01-29T03:24:51.845Z,0.83
2023-01-29T03:27:40.938Z,0.91
2023-01-29T03:30:29.642Z,0.94
2023-01-29T03:33:02.054Z,0.95
2023-01-29T03:35:36.479Z,0.89
2023-01-29T03:38:05.451Z,0.91
2023-01-29T03:40:39.097Z,0.90
2023-01-29T03:43:13.423Z,0.86
2023-01-29T03:45:51.499Z,0.93
2023-01-29T03:48:31.758Z,0.91
2023-01-29T03:51:07.654Z,0.90
2023-01-29T03:53:44.299Z,0.94
2023-01-29T03:56:38.341Z,0.96
2023-01-29T03:59:15.822Z,0.92
2023-01-29T04:01:48.684Z,0.91
2023-01-29T04:04:23.719Z,0.91
2023-01-29T04:06:54.046Z,0.84
2023-01-29T04:09:26.410Z,0.99
2023-01-29T04:12:00.595Z,0.96
2023-01-29T04:14:28.625Z,1.02
2023-01-29T04:17:01.203Z,0.97
2023-01-29T04:19:30.446Z,0.94
2023-01-29T04:22:04.987Z,0.94
2023-01-29T04:24:33.570Z,1.01
2023-01-29T04:27:13.486Z,0.95
2023-01-29T04:29:52.640Z,0.98
2023-01-29T04:32:29.528Z,1.02
2023-01-29T04:35:16.032Z,1.00
2023-01-29T04:37:51.963Z,1.12
2023-01-29T04:40:26.645Z,1.02
2023-01-29T04:43:05.139Z,0.97
2023-01-29T04:45:46.163Z,0.99
2023-01-29T04:48:20.768Z,0.99
2023-01-29T04:51:00.593Z,0.97
2023-01-29T04:53:38.159Z,0.94
2023-01-29T04:56:11.115Z,1.03
2023-01-29T04:58:42.929Z,0.94
2023-01-29T05:01:15.493Z,1.11
2023-01-29T05:03:47.866Z,1.13
2023-01-29T05:06:19.284Z,1.08
2023-01-29T05:08:48.851Z,1.05
2023-01-29T05:11:17.538Z,1.04
2023-01-29T05:13:45.588Z,1.10
2023-01-29T05:16:17.725Z,1.19
2023-01-29T05:18:45.601Z,1.11
2023-01-29T05:21:13.679Z,1.05
2023-01-29T05:23:53.010Z,0.98
2023-01-29T05:26:39.163Z,0.95
2023-01-29T05:29:06.980Z,0.95
2023-01-29T05:31:34.686Z,0.96
2023-01-29T05:34:02.486Z,0.99
2023-01-29T05:36:30.636Z,0.98
2023-01-29T05:38:59.841Z,0.98
2023-01-29T05:41:27.600Z,0.96
2023-01-29T05:43:55.452Z,0.91
2023-01-29T05:46:23.277Z,0.93
2023-01-29T05:48:53.524Z,0.97
2023-01-29T05:51:21.354Z,0.95
2023-01-29T05:53:49.147Z,0.90
2023-01-29T05:56:18.220Z,0.94
2023-01-29T05:58:46.080Z,0.91
2023-01-29T06:01:16.738Z,0.88
2023-01-29T06:03:44.990Z,0.89
2023-01-29T06:06:13.471Z,0.86
2023-01-29T06:08:41.819Z,0.88
2023-01-29T06:11:11.236Z,1.02
2023-01-29T06:13:40.564Z,0.96
2023-01-29T06:16:09.758Z,0.91
2023-01-29T06:18:38.546Z,0.96
2023-01-29T06:21:08.393Z,0.94
2023-01-29T06:23:36.152Z,1.03
2023-01-29T06:26:05.035Z,0.96
2023-01-29T06:28:32.865Z,0.94
2023-01-29T06:31:22.108Z,0.95
2023-01-29T06:33:51.262Z,0.89
2023-01-29T06:36:19.038Z,1.00
2023-01-29T06:38:47.171Z,1.04
2023-01-29T06:41:19.136Z,1.10
2023-01-29T06:43:47.858Z,1.04
2023-01-29T06:46:16.919Z,1.15
2023-01-29T06:48:44.940Z,1.13
2023-01-29T06:51:13.197Z,1.06
2023-01-29T06:53:41.150Z,1.15
2023-01-29T06:56:09.980Z,1.17
2023-01-29T06:58:39.060Z,1.13
2023-01-29T07:01:07.583Z,1.21
2023-01-29T07:03:37.312Z,1.23
2023-01-29T07:06:06.923Z,1.24
2023-01-29T07:08:37.764Z,1.21
2023-01-29T07:11:06.087Z,1.28
2023-01-29T07:13:33.902Z,1.30
2023-01-29T07:16:02.400Z,1.19
2023-01-29T07:18:30.954Z,1.27
2023-01-29T07:21:01.689Z,1.27
2023-01-29T07:23:29.453Z,1.34
2023-01-29T07:25:57.120Z,1.38
2023-01-29T07:28:25.076Z,1.30
2023-01-29T07:30:57.601Z,1.32
2023-01-29T07:33:25.591Z,1.42
2023-01-29T07:35:53.870Z,1.38
2023-01-29T07:38:23.639Z,1.45
2023-01-29T07:40:52.967Z,1.44
2023-01-29T07:43:20.796Z,1.47
2023-01-29T07:45:48.551Z,1.46
2023-01-29T07:48:16.292Z,1.53
2023-01-29T07:50:44.344Z,1.58
2023-01-29T07:53:15.824Z,1.65
2023-01-29T07:55:46.483Z,1.60
2023-01-29T07:58:14.223Z,1.59
2023-01-29T08:00:42.050Z,1.62
2023-01-29T08:03:13.060Z,1.59
2023-01-29T08:05:40.877Z,1.70
2023-01-29T08:08:10.998Z,1.69
2023-01-29T08:10:40.227Z,1.62
2023-01-29T08:13:10.255Z,1.72
2023-01-29T08:15:39.356Z,1.65
2023-01-29T08:18:07.625Z,1.66
2023-01-29T08:20:35.359Z,1.65
2023-01-29T08:23:05.082Z,1.76
2023-01-29T08:25:33.665Z,1.68
2023-01-29T08:28:02.374Z,1.58
2023-01-29T08:30:33.831Z,1.63
2023-01-29T08:33:02.017Z,1.69
2023-01-29T08:35:29.768Z,1.63
2023-01-29T08:37:59.316Z,1.63
2023-01-29T08:40:28.592Z,1.76
2023-01-29T08:43:02.081Z,1.81
2023-01-29T08:45:33.053Z,1.80
2023-01-29T08:48:00.791Z,1.83
2023-01-29T08:50:30.457Z,1.83
2023-01-29T08:52:59.490Z,1.91
2023-01-29T08:55:27.454Z,1.91
2023-01-29T08:57:57.242Z,1.98
2023-01-29T09:00:25.355Z,1.97
2023-01-29T09:02:57.296Z,1.99
2023-01-29T09:05:25.055Z,1.98
2023-01-29T09:07:54.243Z,2.05
2023-01-29T09:10:21.992Z,2.10
2023-01-29T09:12:49.820Z,1.94
2023-01-29T09:15:19.857Z,2.03
2023-01-29T09:17:49.482Z,2.08
2023-01-29T09:20:19.492Z,2.17
2023-01-29T09:22:47.468Z,2.17
2023-01-29T09:25:15.653Z,2.21
2023-01-29T09:27:43.815Z,2.27
2023-01-29T09:30:12.754Z,2.26
2023-01-29T09:32:56.020Z,2.27
2023-01-29T09:35:25.151Z,2.29
2023-01-29T09:37:53.059Z,2.31
2023-01-29T09:40:27.486Z,2.47
2023-01-29T09:43:03.057Z,2.49
2023-01-29T09:45:31.659Z,2.59
2023-01-29T09:48:01.499Z,2.59
2023-01-29T09:50:35.483Z,2.60
2023-01-29T09:53:11.064Z,2.77
2023-01-29T09:55:42.824Z,2.84
2023-01-29T09:58:18.664Z,2.76
2023-01-29T10:00:54.828Z,2.80
2023-01-29T10:03:50.472Z,2.79
2023-01-29T10:06:33.788Z,2.88
2023-01-29T10:09:33.941Z,2.98
2023-01-29T10:12:14.577Z,3.01
2023-01-29T10:14:52.653Z,3.13
2023-01-29T10:17:34.331Z,3.24
2023-01-29T10:20:20.894Z,3.25
2023-01-29T10:23:16.659Z,3.31
2023-01-29T10:25:47.071Z,3.26
2023-01-29T10:28:19.514Z,3.52
2023-01-29T10:30:50.614Z,3.55
2023-01-29T10:33:27.058Z,3.51
2023-01-29T10:35:59.267Z,3.45
2023-01-29T10:38:42.092Z,3.48
2023-01-29T10:41:23.452Z,3.70
2023-01-29T10:44:01.620Z,3.70
2023-01-29T10:46:42.074Z,3.84
2023-01-29T10:49:22.402Z,3.80
2023-01-29T10:52:06.822Z,3.86
2023-01-29T10:54:52.600Z,3.93
2023-01-29T10:57:31.361Z,4.00
2023-01-29T11:00:13.141Z,4.02
2023-01-29T11:02:46.291Z,3.99
2023-01-29T11:05:21.825Z,4.04
2023-01-29T11:07:50.563Z,3.93
2023-01-29T11:10:22.857Z,4.11
2023-01-29T11:12:51.971Z,4.22
2023-01-29T11:15:24.406Z,4.32
2023-01-29T11:18:13.527Z,4.40
2023-01-29T11:20:42.986Z,4.49
2023-01-29T11:23:27.516Z,4.60
2023-01-29T11:25:58.863Z,4.62
2023-01-29T11:28:41.002Z,4.60
2023-01-29T11:31:25.982Z,4.66
2023-01-29T11:34:02.314Z,4.67
2023-01-29T11:36:36.829Z,4.72
2023-01-29T11:39:16.094Z,4.61
2023-01-29T11:41:48.355Z,4.62
2023-01-29T11:44:28.244Z,4.59
2023-01-29T11:46:57.875Z,4.60
2023-01-29T11:49:37.266Z,4.68
2023-01-29T11:52:08.451Z,4.53
2023-01-29T11:54:40.192Z,4.57
2023-01-29T11:57:24.418Z,4.62
2023-01-29T11:59:54.326Z,4.67
2023-01-29T12:02:28.081Z,4.70
2023-01-29T12:04:58.126Z,4.73
2023-01-29T12:07:26.312Z,4.82
2023-01-29T12:09:56.535Z,4.94
2023-01-29T12:12:42.269Z,4.86
2023-01-29T12:15:24.911Z,4.71
2023-01-29T12:18:00.871Z,4.87
2023-01-29T12:20:36.853Z,4.94
2023-01-29T12:23:15.402Z,4.91
2023-01-29T12:25:51.772Z,4.82
2023-01-29T12:28:45.858Z,4.72
2023-01-29T12:31:25.028Z,4.81
2023-01-29T12:33:56.829Z,4.88
2023-01-29T12:36:29.999Z,4.81
2023-01-29T12:38:58.963Z,4.85
2023-01-29T12:41:34.396Z,4.83
2023-01-29T12:44:13.967Z,4.82
2023-01-29T12:46:48.854Z,4.68
2023-01-29T12:49:20.137Z,4.74
2023-01-29T12:51:59.033Z,4.71
2023-01-29T12:54:37.147Z,4.61
2023-01-29T12:57:14.317Z,4.43
2023-01-29T12:59:48.783Z,4.38
2023-01-29T13:02:31.292Z,4.35
2023-01-29T13:05:03.902Z,4.35
2023-01-29T13:07:37.015Z,4.28
2023-01-29T13:10:11.653Z,4.30
2023-01-29T13:12:47.045Z,4.38
2023-01-29T13:15:24.327Z,4.43
2023-01-29T13:17:55.711Z,4.39
2023-01-29T13:20:29.918Z,4.41
2023-01-29T13:23:04.608Z,4.45
2023-01-29T13:25:32.396Z,4.50
2023-01-29T13:28:00.232Z,4.54
2023-01-29T13:30:32.714Z,4.49
2023-01-29T13:33:10.397Z,4.41
2023-01-29T13:35:42.083Z,4.41
2023-01-29T13:38:26.582Z,4.42
2023-01-29T13:40:58.251Z,4.38
2023-01-29T13:43:26.297Z,4.41
2023-01-29T13:45:56.063Z,4.36
2023-01-29T13:48:27.538Z,4.36
2023-01-29T13:50:57.428Z,4.36
2023-01-29T13:53:28.481Z,4.22
2023-01-29T13:55:56.320Z,4.23
2023-01-29T13:58:54.674Z,4.15
2023-01-29T14:01:56.363Z,4.14
2023-01-29T14:04:28.414Z,4.06
2023-01-29T14:06:57.094Z,4.04
2023-01-29T14:10:03.563Z,3.96
2023-01-29T14:12:38.548Z,4.09
2023-01-29T14:15:29.759Z,4.07
2023-01-29T14:18:19.823Z,4.06
2023-01-29T14:21:06.880Z,3.77
2023-01-29T14:23:41.088Z,3.86
2023-01-29T14:26:23.112Z,3.84
2023-01-29T14:29:05.730Z,3.79
2023-01-29T14:31:42.338Z,3.79
2023-01-29T14:34:19.678Z,3.79
2023-01-29T14:36:55.224Z,3.75
2023-01-29T14:39:38.678Z,3.78
2023-01-29T14:42:18.680Z,3.70
2023-01-29T14:45:00.768Z,3.67
2023-01-29T14:47:55.462Z,3.70
2023-01-29T14:50:48.120Z,3.71
2023-01-29T14:53:29.264Z,3.68
2023-01-29T14:56:02.070Z,3.66
2023-01-29T14:58:38.634Z,3.55
2023-01-29T15:01:12.271Z,3.56
2023-01-29T15:03:45.681Z,3.58
2023-01-29T15:06:19.964Z,3.56
2023-01-29T15:08:56.559Z,3.55
2023-01-29T15:11:36.038Z,3.50
2023-01-29T15:14:24.817Z,3.40
2023-01-29T15:17:11.290Z,3.36
2023-01-29T15:19:45.611Z,3.47
2023-01-29T15:22:15.410Z,3.32
2023-01-29T15:24:46.398Z,3.41
2023-01-29T15:27:16.967Z,3.41
2023-01-29T15:29:48.755Z,3.36
2023-01-29T15:32:29.217Z,3.25
2023-01-29T15:34:58.454Z,3.24
2023-01-29T15:37:28.271Z,3.32
2023-01-29T15:39:58.173Z,3.33
2023-01-29T15:42:28.474Z,3.27
2023-01-29T15:44:56.769Z,3.27
2023-01-29T15:47:29.804Z,3.27
2023-01-29T15:49:58.629Z,3.24
2023-01-29T15:52:29.922Z,3.19
2023-01-29T15:55:04.130Z,3.22
2023-01-29T15:57:37.320Z,3.23
2023-01-29T16:00:08.183Z,3.11
2023-01-29T16:02:41.308Z,3.14
2023-01-29T16:05:14.959Z,3.10
2023-01-29T16:07:44.036Z,3.11
2023-01-29T16:10:19.173Z,3.06
2023-01-29T16:12:51.383Z,3.06
2023-01-29T16:15:28.610Z,3.08
2023-01-29T16:17:57.024Z,3.12
2023-01-29T16:20:44.570Z,3.12
2023-01-29T16:23:19.400Z,3.09
2023-01-29T16:25:50.148Z,3.17
2023-01-29T16:28:18.889Z,3.06
2023-01-29T16:30:46.798Z,3.08
2023-01-29T16:33:18.055Z,3.13
2023-01-29T16:35:52.135Z,3.06
2023-01-29T16:38:29.607Z,3.05
2023-01-29T16:41:15.210Z,3.05
2023-01-29T16:43:52.669Z,3.08
2023-01-29T16:46:26.262Z,2.96
2023-01-29T16:48:54.855Z,3.04
2023-01-29T16:51:27.048Z,2.99
2023-01-29T16:54:00.363Z,3.06
2023-01-29T16:56:33.150Z,2.98
2023-01-29T16:59:04.155Z,2.98
2023-01-29T17:01:32.785Z,2.95
2023-01-29T17:04:07.608Z,2.94
2023-01-29T17:06:49.996Z,3.00
2023-01-29T17:09:25.587Z,3.03
2023-01-29T17:11:58.456Z,3.07
2023-01-29T17:14:27.476Z,2.89
2023-01-29T17:16:57.295Z,3.03
2023-01-29T17:19:25.882Z,3.03
2023-01-29T17:21:54.056Z,2.94
2023-01-29T17:24:21.867Z,2.89
2023-01-29T17:26:49.954Z,2.92
2023-01-29T17:29:21.892Z,2.90
2023-01-29T17:31:49.768Z,2.88
2023-01-29T17:34:18.627Z,2.99
2023-01-29T17:36:47.017Z,2.93
2023-01-29T17:39:18.583Z,2.95
2023-01-29T17:41:48.269Z,2.86
2023-01-29T17:44:16.433Z,2.92
2023-01-29T17:46:46.177Z,2.89
2023-01-29T17:49:23.428Z,2.97
2023-01-29T17:51:51.748Z,2.95
2023-01-29T17:54:19.611Z,2.96
2023-01-29T17:56:47.747Z,2.90
2023-01-29T17:59:16.380Z,2.87
2023-01-29T18:01:45.587Z,2.95
2023-01-29T18:04:14.009Z,2.93
2023-01-29T18:06:43.257Z,2.85
2023-01-29T18:09:13.788Z,2.97
2023-01-29T18:11:42.355Z,2.81
2023-01-29T18:14:13.561Z,2.88
2023-01-29T18:16:43.584Z,2.86
2023-01-29T18:19:19.837Z,2.95
2023-01-29T18:21:47.850Z,2.87
2023-01-29T18:24:15.847Z,2.84
2023-01-29T18:26:43.936Z,2.86
2023-01-29T18:29:11.966Z,2.76
2023-01-29T18:31:39.816Z,2.85
2023-01-29T18:34:08.003Z,2.90
2023-01-29T18:36:37.203Z,2.85
2023-01-29T18:39:05.181Z,2.87
2023-01-29T18:41:33.046Z,2.91
2023-01-29T18:44:01.078Z,2.84
2023-01-29T18:46:28.849Z,2.89
2023-01-29T18:48:56.676Z,2.90
2023-01-29T18:51:24.404Z,2.94
2023-01-29T18:53:53.705Z,2.82
2023-01-29T18:56:21.482Z,2.95
2023-01-29T18:58:52.307Z,2.93
2023-01-29T19:01:23.783Z,2.85
2023-01-29T19:03:51.995Z,2.88
2023-01-29T19:06:19.821Z,2.82
2023-01-29T19:08:47.931Z,2.76
2023-01-29T19:11:17.003Z,2.90
2023-01-29T19:13:46.031Z,2.90
2023-01-29T19:16:14.218Z,2.92
2023-01-29T19:18:42.509Z,2.93
2023-01-29T19:21:12.097Z,2.85
2023-01-29T19:23:40.520Z,2.90
2023-01-29T19:26:08.764Z,2.87
2023-01-29T19:28:38.116Z,2.88
2023-01-29T19:31:06.256Z,2.80
2023-01-29T19:33:34.174Z,2.89
2023-01-29T19:36:02.823Z,2.92
2023-01-29T19:38:33.427Z,2.86
2023-01-29T19:41:01.578Z,2.82
2023-01-29T19:43:31.488Z,2.87
2023-01-29T19:46:02.501Z,2.81
2023-01-29T19:48:30.776Z,2.78
2023-01-29T19:51:01.366Z,2.72
2023-01-29T19:53:30.140Z,2.80
2023-01-29T19:55:59.431Z,2.78
2023-01-29T19:58:27.605Z,2.83
2023-01-29T20:00:56.735Z,2.82
2023-01-29T20:03:26.575Z,2.81
2023-01-29T20:05:54.569Z,2.80
2023-01-29T20:08:23.862Z,2.79
2023-01-29T20:10:51.696Z,2.82
2023-01-29T20:13:19.430Z,2.83
2023-01-29T20:15:48.262Z,2.85
2023-01-29T20:18:17.197Z,2.76
2023-01-29T20:20:48.141Z,2.79
2023-01-29T20:23:25.013Z,2.72
2023-01-29T20:26:03.518Z,2.81
2023-01-29T20:28:34.569Z,2.67
2023-01-29T20:31:03.457Z,2.78
2023-01-29T20:33:31.838Z,2.85
2023-01-29T20:36:02.889Z,2.74
2023-01-29T20:38:31.780Z,2.79
2023-01-29T20:41:05.108Z,2.80
2023-01-29T20:43:33.027Z,2.78
2023-01-29T20:46:01.195Z,2.72
2023-01-29T20:48:29.444Z,2.71
2023-01-29T20:50:57.212Z,2.70
2023-01-29T20:53:26.527Z,2.67
2023-01-29T20:55:54.330Z,2.63
2023-01-29T20:58:22.472Z,2.68
2023-01-29T21:00:50.329Z,2.64
2023-01-29T21:03:18.114Z,2.65
2023-01-29T21:05:46.322Z,2.62
2023-01-29T21:08:14.699Z,2.65
2023-01-29T21:10:45.072Z,2.69
2023-01-29T21:13:12.958Z,2.64
2023-01-29T21:15:44.236Z,2.75
2023-01-29T21:18:12.503Z,2.72
2023-01-29T21:20:40.258Z,2.69
2023-01-29T21:23:08.041Z,2.72
2023-01-29T21:25:36.008Z,2.73
2023-01-29T21:28:06.410Z,2.68
2023-01-29T21:30:35.100Z,2.73
2023-01-29T21:33:03.009Z,2.66
2023-01-29T21:35:30.904Z,2.70
2023-01-29T21:37:58.772Z,2.69
2023-01-29T21:40:26.652Z,2.70
2023-01-29T21:43:11.783Z,2.67
2023-01-29T21:45:41.594Z,2.65
2023-01-29T21:48:10.230Z,2.55
2023-01-29T21:50:38.918Z,2.59
2023-01-29T21:53:07.191Z,2.58
2023-01-29T21:55:35.084Z,2.62
2023-01-29T21:58:02.873Z,2.55
2023-01-29T22:00:30.686Z,2.48
2023-01-29T22:02:59.994Z,2.55
2023-01-29T22:05:29.109Z,2.50
2023-01-29T22:07:57.144Z,2.50
2023-01-29T22:10:25.439Z,2.47
2023-01-29T22:12:53.483Z,2.47
2023-01-29T22:15:23.611Z,2.53
2023-01-29T22:17:52.115Z,2.52
2023-01-29T22:20:29.462Z,2.47
2023-01-29T22:22:59.293Z,2.50
2023-01-29T22:25:27.477Z,2.58
2023-01-29T22:27:55.463Z,2.48
2023-01-29T22:30:24.023Z,2.46
2023-01-29T22:32:52.162Z,2.49
2023-01-29T22:35:21.343Z,2.46
2023-01-29T22:37:49.159Z,2.51
2023-01-29T22:40:17.473Z,2.49
2023-01-29T22:42:45.421Z,2.47
2023-01-29T22:45:13.504Z,2.57
2023-01-29T22:47:41.482Z,2.46
2023-01-29T22:50:10.268Z,2.51
2023-01-29T22:52:39.466Z,2.53
2023-01-29T22:55:09.546Z,2.53
2023-01-29T22:57:37.822Z,2.40
2023-01-29T23:00:07.894Z,2.38
2023-01-29T23:02:35.602Z,2.47
2023-01-29T23:05:04.258Z,2.45
2023-01-29T23:07:31.970Z,2.51
2023-01-29T23:10:01.126Z,2.46
2023-01-29T23:12:28.897Z,2.44
2023-01-29T23:14:56.593Z,2.42
2023-01-29T23:17:24.351Z,2.45
2023-01-29T23:19:52.091Z,2.47
2023-01-29T23:22:19.825Z,2.39
2023-01-29T23:24:47.558Z,2.47
2023-01-29T23:27:15.888Z,2.44
2023-01-29T23:29:44.677Z,2.39
2023-01-29T23:32:13.941Z,2.38
2023-01-29T23:34:41.846Z,2.45
2023-01-29T23:37:09.867Z,2.39
2023-01-29T23:39:37.713Z,2.46
2023-01-29T23:42:05.628Z,2.36
2023-01-29T23:44:35.482Z,2.47
2023-01-29T23:47:03.273Z,2.48
2023-01-29T23:49:31.010Z,2.46
2023-01-29T23:51:58.793Z,2.40
2023-01-29T23:54:26.730Z,2.44
2023-01-29T23:56:54.428Z,2.48
2023-01-29T23:59:22.384Z,2.52
